createdAt,value
2019-06-26T00:02:30.909Z,7.93
2019-06-26T00:05:03.274Z,7.03
2019-06-26T00:07:35.495Z,6.83
2019-06-26T00:10:07.708Z,7.30
2019-06-26T00:12:39.907Z,7.30
2019-06-26T00:15:14.331Z,7.20
2019-06-26T00:17:46.566Z,7.13
2019-06-26T00:20:19.120Z,7.53
2019-06-26T00:22:51.402Z,7.40
2019-06-26T00:25:23.666Z,7.00
2019-06-26T00:27:55.967Z,7.20
2019-06-26T00:30:28.345Z,7.40
2019-06-26T00:33:00.612Z,7.50
2019-06-26T00:35:32.898Z,7.80
2019-06-26T00:38:05.109Z,7.23
2019-06-26T00:40:37.424Z,7.60
2019-06-26T00:43:09.720Z,6.83
2019-06-26T00:45:42.040Z,7.00
2019-06-26T00:48:14.344Z,7.90
2019-06-26T00:50:46.540Z,8.90
2019-06-26T00:53:18.715Z,7.53
2019-06-26T00:55:50.911Z,7.43
2019-06-26T00:58:23.307Z,7.60
2019-06-26T01:00:55.559Z,7.30
2019-06-26T01:03:27.807Z,8.93
2019-06-26T01:06:00.137Z,6.87
2019-06-26T01:08:32.739Z,6.35
2019-06-26T01:11:05.886Z,6.93
2019-06-26T01:13:38.442Z,7.20
2019-06-26T01:16:10.716Z,7.47
2019-06-26T01:18:43.017Z,6.90
2019-06-26T01:21:15.363Z,7.83
2019-06-26T01:23:47.793Z,6.60
2019-06-26T01:26:20.186Z,9.20
2019-06-26T01:28:52.509Z,7.07
2019-06-26T01:31:24.808Z,7.67
2019-06-26T01:33:57.099Z,7.03
2019-06-26T01:36:34.253Z,8.63
2019-06-26T01:39:07.172Z,7.60
2019-06-26T01:41:39.366Z,7.40
2019-06-26T01:44:15.383Z,7.17
2019-06-26T01:46:47.999Z,8.87
2019-06-26T01:49:20.296Z,8.27
2019-06-26T01:51:52.473Z,7.53
2019-06-26T01:54:24.694Z,8.57
2019-06-26T01:56:56.920Z,8.03
2019-06-26T01:59:34.331Z,7.90
2019-06-26T02:02:11.566Z,8.00
2019-06-26T02:04:49.140Z,9.10
2019-06-26T02:07:26.445Z,7.47
2019-06-26T02:10:03.676Z,9.80
2019-06-26T02:12:40.786Z,8.10
2019-06-26T02:15:17.148Z,7.70
2019-06-26T02:17:54.431Z,8.20
2019-06-26T02:20:31.578Z,7.55
2019-06-26T02:23:08.796Z,7.83
2019-06-26T02:25:46.124Z,8.40
2019-06-26T02:28:23.698Z,7.62
2019-06-26T02:31:00.803Z,8.63
2019-06-26T02:33:38.045Z,7.70
2019-06-26T02:36:15.454Z,7.25
2019-06-26T02:38:52.637Z,7.90
2019-06-26T02:41:29.815Z,8.60
2019-06-26T02:44:07.098Z,9.40
2019-06-26T02:46:44.293Z,8.20
2019-06-26T02:49:21.674Z,9.77
2019-06-26T02:51:58.752Z,8.17
2019-06-26T02:54:31.158Z,7.97
2019-06-26T02:57:03.396Z,8.50
2019-06-26T02:59:35.733Z,8.97
2019-06-26T03:02:07.935Z,8.40
2019-06-26T03:04:40.197Z,7.87
2019-06-26T03:07:12.431Z,8.83
2019-06-26T03:09:44.750Z,8.57
2019-06-26T03:12:17.392Z,8.40
2019-06-26T03:14:49.716Z,8.70
2019-06-26T03:17:21.949Z,8.67
2019-06-26T03:19:54.394Z,10.13
2019-06-26T03:22:26.682Z,9.97
2019-06-26T03:24:59.028Z,9.67
2019-06-26T03:27:31.324Z,9.93
2019-06-26T03:30:05.751Z,9.63
2019-06-26T03:32:38.069Z,10.20
2019-06-26T03:35:10.355Z,9.93
2019-06-26T03:37:42.670Z,10.53
2019-06-26T03:40:15.030Z,9.40
2019-06-26T03:42:47.279Z,9.03
2019-06-26T03:45:25.836Z,9.60
2019-06-26T03:47:58.809Z,9.63
2019-06-26T03:50:31.143Z,9.10
2019-06-26T03:53:03.386Z,9.50
2019-06-26T03:55:35.649Z,10.00
2019-06-26T03:58:07.981Z,12.17
2019-06-26T04:00:42.071Z,9.90
2019-06-26T04:03:14.321Z,10.00
2019-06-26T04:05:51.552Z,10.13
2019-06-26T04:08:28.780Z,10.13
2019-06-26T04:11:06.003Z,10.47
2019-06-26T04:13:43.291Z,10.57
2019-06-26T04:16:20.708Z,9.80
2019-06-26T04:18:53.007Z,9.87
2019-06-26T04:21:25.234Z,10.50
2019-06-26T04:23:57.458Z,10.03
2019-06-26T04:26:29.765Z,9.87
2019-06-26T04:29:01.991Z,11.13
2019-06-26T04:31:34.329Z,10.07
2019-06-26T04:34:06.592Z,11.27
2019-06-26T04:36:38.905Z,10.02
2019-06-26T04:39:11.128Z,9.77
2019-06-26T04:41:43.403Z,12.87
2019-06-26T04:44:15.818Z,10.57
2019-06-26T04:46:48.132Z,12.20
2019-06-26T04:49:20.368Z,10.80
2019-06-26T04:51:52.574Z,10.87
2019-06-26T04:54:24.782Z,10.20
2019-06-26T04:57:02.823Z,10.17
2019-06-26T04:59:47.508Z,11.17
2019-06-26T05:02:20.737Z,11.13
2019-06-26T05:04:53.514Z,9.23
2019-06-26T05:07:25.776Z,11.03
2019-06-26T05:09:58.191Z,9.38
2019-06-26T05:12:30.470Z,10.10
2019-06-26T05:15:06.011Z,9.45
2019-06-26T05:17:38.326Z,13.80
2019-06-26T05:20:10.632Z,14.30
2019-06-26T05:22:42.863Z,14.57
2019-06-26T05:25:15.798Z,18.47
2019-06-26T05:27:48.085Z,13.40
2019-06-26T05:30:20.330Z,22.37
2019-06-26T05:32:52.704Z,23.60
2019-06-26T05:35:25.040Z,24.27
2019-06-26T05:37:57.353Z,25.37
2019-06-26T05:40:29.579Z,25.70
2019-06-26T05:43:01.823Z,27.73
2019-06-26T05:45:34.018Z,41.90
2019-06-26T05:48:06.273Z,27.47
2019-06-26T05:50:38.423Z,25.67
2019-06-26T05:53:11.136Z,23.77
2019-06-26T05:55:43.503Z,24.90
2019-06-26T05:58:16.059Z,26.27
2019-06-26T06:00:48.924Z,35.58
2019-06-26T06:03:21.776Z,25.40
2019-06-26T06:05:54.495Z,31.13
2019-06-26T06:08:27.014Z,22.45
2019-06-26T06:10:59.283Z,28.70
2019-06-26T06:13:35.556Z,36.47
2019-06-26T06:16:08.036Z,22.80
2019-06-26T06:18:43.417Z,32.53
2019-06-26T06:21:15.597Z,23.53
2019-06-26T06:23:47.896Z,25.37
2019-06-26T06:26:20.105Z,32.10
2019-06-26T06:28:52.472Z,34.53
2019-06-26T06:31:24.672Z,27.97
2019-06-26T06:34:01.104Z,28.90
2019-06-26T06:36:33.612Z,22.85
2019-06-26T06:39:07.439Z,32.20
2019-06-26T06:41:43.222Z,26.30
2019-06-26T06:44:15.893Z,28.97
2019-06-26T06:47:02.721Z,25.30
2019-06-26T06:49:35.874Z,33.60
2019-06-26T06:52:08.114Z,34.63
2019-06-26T06:54:41.128Z,32.33
2019-06-26T06:57:13.379Z,42.20
2019-06-26T06:59:48.103Z,41.87
2019-06-26T07:02:21.352Z,27.13
2019-06-26T07:04:53.818Z,26.48
2019-06-26T07:07:26.288Z,37.30
2019-06-26T07:09:58.559Z,31.70
2019-06-26T07:12:30.875Z,34.57
2019-06-26T07:15:05.775Z,36.23
2019-06-26T07:17:37.969Z,40.63
2019-06-26T07:20:11.263Z,36.23
2019-06-26T07:22:43.421Z,32.57
2019-06-26T07:25:15.707Z,32.00
2019-06-26T07:27:47.874Z,30.80
2019-06-26T07:30:20.141Z,30.77
2019-06-26T07:32:53.128Z,31.43
2019-06-26T07:35:25.454Z,38.40
2019-06-26T07:38:00.061Z,31.33
2019-06-26T07:40:32.682Z,37.30
2019-06-26T07:43:05.114Z,30.63
2019-06-26T07:45:37.319Z,35.93
2019-06-26T07:48:09.567Z,35.37
2019-06-26T07:50:41.831Z,31.67
2019-06-26T07:53:14.056Z,32.47
2019-06-26T07:55:46.403Z,29.20
2019-06-26T07:58:18.688Z,26.90
2019-06-26T08:00:51.034Z,29.23
2019-06-26T08:03:23.320Z,42.27
2019-06-26T08:05:55.838Z,39.50
2019-06-26T08:08:35.372Z,42.77
2019-06-26T08:11:19.910Z,42.87
2019-06-26T08:13:52.987Z,32.33
2019-06-26T08:16:25.315Z,28.67
2019-06-26T08:18:57.580Z,37.20
2019-06-26T08:21:30.715Z,35.57
2019-06-26T08:24:07.273Z,30.57
2019-06-26T08:26:39.496Z,35.03
2019-06-26T08:29:11.802Z,35.27
2019-06-26T08:31:44.043Z,32.40
2019-06-26T08:34:16.248Z,41.40
2019-06-26T08:36:48.508Z,27.87
2019-06-26T08:39:20.717Z,21.70
2019-06-26T08:41:53.237Z,18.97
2019-06-26T08:44:25.516Z,20.97
2019-06-26T08:46:57.725Z,24.33
2019-06-26T08:49:30.006Z,23.83
2019-06-26T08:52:02.334Z,34.83
2019-06-26T08:54:34.860Z,28.87
2019-06-26T08:57:07.111Z,27.93
2019-06-26T08:59:39.286Z,24.23
2019-06-26T09:02:26.235Z,32.97
2019-06-26T09:05:00.468Z,36.43
2019-06-26T09:07:32.796Z,34.63
2019-06-26T09:10:05.889Z,33.03
2019-06-26T09:12:38.073Z,31.27
2019-06-26T09:15:10.319Z,32.73
2019-06-26T09:17:44.507Z,30.90
2019-06-26T09:20:37.549Z,22.67
2019-06-26T09:23:09.726Z,31.37
2019-06-26T09:25:41.943Z,33.47
2019-06-26T09:28:14.122Z,22.03
2019-06-26T09:30:46.455Z,32.37
2019-06-26T09:33:18.731Z,30.00
2019-06-26T09:35:50.942Z,32.23
2019-06-26T09:38:23.327Z,24.83
2019-06-26T09:40:56.001Z,24.43
2019-06-26T09:43:28.268Z,23.27
2019-06-26T09:46:00.465Z,24.40
2019-06-26T09:48:33.677Z,26.05
2019-06-26T09:51:06.011Z,23.87
2019-06-26T09:53:47.231Z,22.20
2019-06-26T09:56:20.329Z,23.77
2019-06-26T09:58:52.573Z,23.87
2019-06-26T10:01:24.937Z,24.23
2019-06-26T10:03:57.284Z,17.00
2019-06-26T10:06:29.539Z,28.27
2019-06-26T10:09:01.838Z,21.25
2019-06-26T10:11:34.063Z,17.27
2019-06-26T10:14:06.514Z,17.63
2019-06-26T10:16:38.840Z,12.43
2019-06-26T10:19:22.645Z,13.30
2019-06-26T10:21:55.458Z,12.40
2019-06-26T10:24:27.907Z,16.57
2019-06-26T10:27:00.203Z,13.00
2019-06-26T10:29:32.579Z,11.30
2019-06-26T10:32:05.119Z,12.47
2019-06-26T10:34:37.396Z,14.33
2019-06-26T10:37:09.955Z,15.73
2019-06-26T10:39:42.391Z,13.73
2019-06-26T10:42:14.616Z,22.80
2019-06-26T10:44:47.319Z,16.23
2019-06-26T10:47:19.532Z,17.80
2019-06-26T10:49:52.218Z,17.05
2019-06-26T10:52:24.410Z,14.67
2019-06-26T10:54:56.670Z,14.00
2019-06-26T10:57:28.908Z,14.37
2019-06-26T11:00:01.150Z,16.30
2019-06-26T11:02:35.545Z,12.90
2019-06-26T11:05:07.963Z,13.63
2019-06-26T11:07:40.184Z,16.87
2019-06-26T11:10:13.157Z,13.00
2019-06-26T11:12:48.826Z,16.50
2019-06-26T11:15:21.356Z,15.43
2019-06-26T11:17:53.675Z,24.15
2019-06-26T11:20:26.704Z,18.27
2019-06-26T11:22:58.944Z,21.43
2019-06-26T11:25:31.195Z,22.27
2019-06-26T11:28:03.428Z,21.37
2019-06-26T11:30:35.787Z,22.63
2019-06-26T11:33:08.378Z,21.03
2019-06-26T11:35:39.915Z,23.70
2019-06-26T11:38:12.230Z,21.10
2019-06-26T11:40:44.570Z,21.97
2019-06-26T11:43:18.056Z,19.33
2019-06-26T11:45:54.941Z,19.13
2019-06-26T11:48:28.889Z,21.30
2019-06-26T11:51:01.123Z,20.03
2019-06-26T11:53:33.368Z,18.50
2019-06-26T11:56:05.637Z,20.53
2019-06-26T11:58:38.815Z,18.30
2019-06-26T12:01:18.450Z,14.70
2019-06-26T12:04:17.491Z,14.10
2019-06-26T12:06:54.011Z,12.98
2019-06-26T12:09:27.567Z,13.90
2019-06-26T12:11:59.965Z,17.80
2019-06-26T12:14:32.575Z,14.03
2019-06-26T12:17:04.813Z,13.60
2019-06-26T12:19:38.029Z,14.70
2019-06-26T12:22:11.366Z,18.70
2019-06-26T12:24:44.152Z,15.57
2019-06-26T12:27:16.487Z,16.67
2019-06-26T12:29:49.108Z,13.53
2019-06-26T12:32:21.403Z,16.77
2019-06-26T12:34:53.725Z,21.43
2019-06-26T12:37:37.058Z,19.17
2019-06-26T12:40:10.670Z,22.93
2019-06-26T12:42:45.943Z,16.10
2019-06-26T12:45:17.847Z,16.60
2019-06-26T12:47:53.367Z,17.57
2019-06-26T12:50:35.449Z,17.27
2019-06-26T12:53:08.495Z,15.07
2019-06-26T12:55:40.723Z,15.80
2019-06-26T12:58:16.282Z,19.00
2019-06-26T13:00:52.404Z,17.97
2019-06-26T13:03:24.663Z,18.52
2019-06-26T13:05:57.374Z,22.65
2019-06-26T13:08:29.890Z,17.90
2019-06-26T13:11:02.172Z,18.00
2019-06-26T13:13:34.914Z,16.50
2019-06-26T13:16:07.577Z,16.63
2019-06-26T13:18:40.336Z,16.50
2019-06-26T13:21:18.725Z,16.07
2019-06-26T13:23:51.062Z,14.30
2019-06-26T13:26:24.295Z,13.63
2019-06-26T13:28:59.034Z,13.73
2019-06-26T13:31:31.765Z,14.30
2019-06-26T13:34:04.935Z,15.20
2019-06-26T13:36:37.245Z,14.70
2019-06-26T13:39:09.579Z,13.13
2019-06-26T13:41:50.674Z,14.20
2019-06-26T13:44:23.786Z,15.10
2019-06-26T13:46:56.017Z,14.45
2019-06-26T13:49:28.289Z,14.60
2019-06-26T13:52:00.548Z,14.73
2019-06-26T13:54:32.768Z,15.87
2019-06-26T13:57:05.750Z,15.20
2019-06-26T13:59:38.102Z,13.70
2019-06-26T14:02:10.409Z,13.67
2019-06-26T14:04:42.739Z,13.27
2019-06-26T14:07:15.035Z,13.30
2019-06-26T14:09:47.446Z,17.17
2019-06-26T14:12:20.149Z,17.80
2019-06-26T14:14:57.674Z,16.47
2019-06-26T14:17:30.516Z,16.60
2019-06-26T14:20:02.836Z,17.67
2019-06-26T14:22:35.132Z,17.93
2019-06-26T14:25:07.745Z,16.75
2019-06-26T14:27:40.204Z,16.10
2019-06-26T14:30:14.660Z,15.10
2019-06-26T14:32:47.147Z,14.63
2019-06-26T14:35:19.404Z,13.93
2019-06-26T14:37:52.998Z,15.27
2019-06-26T14:40:25.272Z,13.40
2019-06-26T14:42:57.514Z,11.83
2019-06-26T14:45:29.855Z,11.00
2019-06-26T14:48:03.396Z,11.00
2019-06-26T14:50:35.835Z,10.67
2019-06-26T14:53:08.314Z,9.38
2019-06-26T14:55:42.430Z,10.53
2019-06-26T14:58:16.168Z,9.97
2019-06-26T15:00:48.450Z,11.07
2019-06-26T15:03:21.747Z,10.90
2019-06-26T15:05:54.148Z,10.97
2019-06-26T15:08:27.079Z,11.27
2019-06-26T15:11:00.541Z,12.80
2019-06-26T15:13:34.936Z,12.40
2019-06-26T15:16:07.948Z,12.90
2019-06-26T15:18:40.220Z,12.47
2019-06-26T15:21:12.556Z,14.03
2019-06-26T15:23:46.992Z,13.17
2019-06-26T15:26:19.264Z,13.93
2019-06-26T15:28:51.638Z,13.13
2019-06-26T15:31:26.467Z,17.37
2019-06-26T15:33:59.343Z,14.67
2019-06-26T15:36:34.381Z,13.40
2019-06-26T15:39:09.451Z,14.73
2019-06-26T15:41:41.878Z,14.10
2019-06-26T15:44:14.310Z,14.97
2019-06-26T15:46:46.608Z,15.98
2019-06-26T15:49:18.876Z,16.27
2019-06-26T15:51:52.396Z,14.63
2019-06-26T15:54:24.823Z,14.77
2019-06-26T15:56:57.245Z,15.07
2019-06-26T15:59:31.140Z,14.93
2019-06-26T16:02:03.688Z,13.63
2019-06-26T16:04:36.009Z,14.70
2019-06-26T16:07:08.267Z,18.90
2019-06-26T16:09:40.560Z,14.63
2019-06-26T16:12:12.872Z,14.40
2019-06-26T16:14:45.491Z,15.43
2019-06-26T16:17:30.548Z,14.03
2019-06-26T16:20:02.852Z,14.07
2019-06-26T16:22:35.142Z,13.00
2019-06-26T16:25:07.814Z,12.20
2019-06-26T16:27:40.132Z,13.30
2019-06-26T16:30:16.223Z,11.83
2019-06-26T16:32:48.491Z,12.47
2019-06-26T16:35:21.307Z,10.43
2019-06-26T16:37:53.805Z,10.83
2019-06-26T16:40:26.752Z,12.17
2019-06-26T16:42:59.018Z,9.40
2019-06-26T16:45:32.128Z,9.80
2019-06-26T16:48:04.500Z,9.73
2019-06-26T16:50:38.427Z,11.20
2019-06-26T16:53:12.732Z,9.00
2019-06-26T16:55:46.268Z,8.67
2019-06-26T16:58:19.522Z,8.63
2019-06-26T17:00:53.133Z,8.60
2019-06-26T17:03:25.363Z,8.23
2019-06-26T17:05:57.643Z,8.90
2019-06-26T17:08:30.642Z,8.83
2019-06-26T17:11:07.114Z,8.77
2019-06-26T17:13:42.003Z,9.17
2019-06-26T17:16:14.251Z,7.57
2019-06-26T17:18:46.551Z,10.27
2019-06-26T17:21:18.795Z,9.40
2019-06-26T17:23:52.137Z,7.53
2019-06-26T17:26:24.545Z,9.13
2019-06-26T17:28:56.943Z,7.47
2019-06-26T17:31:29.570Z,7.80
2019-06-26T17:34:01.838Z,8.57
2019-06-26T17:36:34.116Z,10.03
2019-06-26T17:39:07.392Z,8.63
2019-06-26T17:41:39.770Z,10.23
2019-06-26T17:44:12.054Z,8.70
2019-06-26T17:46:44.325Z,8.83
2019-06-26T17:49:16.686Z,8.40
2019-06-26T17:51:49.052Z,8.53
2019-06-26T17:54:21.433Z,9.87
2019-06-26T17:56:54.478Z,9.90
2019-06-26T17:59:26.728Z,8.90
2019-06-26T18:02:00.505Z,8.77
2019-06-26T18:04:40.453Z,10.40
2019-06-26T18:07:12.720Z,10.80
2019-06-26T18:09:45.010Z,11.50
2019-06-26T18:12:17.232Z,9.73
2019-06-26T18:14:49.872Z,10.73
2019-06-26T18:17:22.794Z,9.40
2019-06-26T18:19:56.352Z,8.80
2019-06-26T18:22:28.673Z,8.90
2019-06-26T18:25:01.030Z,10.23
2019-06-26T18:27:33.409Z,9.60
2019-06-26T18:30:10.297Z,8.60
2019-06-26T18:32:44.243Z,9.97
2019-06-26T18:35:16.649Z,8.00
2019-06-26T18:37:49.067Z,9.30
2019-06-26T18:40:22.320Z,8.77
2019-06-26T18:42:54.741Z,8.77
2019-06-26T18:45:27.058Z,8.50
2019-06-26T18:47:59.471Z,8.87
2019-06-26T18:50:31.791Z,7.93
2019-06-26T18:53:04.150Z,9.57
2019-06-26T18:55:36.486Z,7.67
2019-06-26T18:58:08.878Z,8.50
2019-06-26T19:00:41.481Z,8.60
2019-06-26T19:03:13.769Z,10.27
2019-06-26T19:05:46.088Z,7.37
2019-06-26T19:08:18.514Z,9.10
2019-06-26T19:10:51.447Z,8.52
2019-06-26T19:13:24.686Z,8.30
2019-06-26T19:15:57.219Z,9.73
2019-06-26T19:18:29.612Z,8.73
2019-06-26T19:21:01.953Z,10.50
2019-06-26T19:23:34.291Z,7.27
2019-06-26T19:26:07.351Z,11.70
2019-06-26T19:28:40.240Z,8.37
2019-06-26T19:31:12.612Z,7.00
2019-06-26T19:33:45.741Z,7.63
2019-06-26T19:36:18.245Z,34.33
2019-06-26T19:38:50.614Z,7.53
2019-06-26T19:41:23.091Z,11.43
2019-06-26T19:43:55.482Z,9.90
2019-06-26T19:46:27.932Z,7.40
2019-06-26T19:49:00.303Z,8.15
2019-06-26T19:51:32.691Z,7.03
2019-06-26T19:54:04.987Z,8.33
2019-06-26T19:56:37.403Z,7.40
2019-06-26T19:59:10.279Z,10.07
2019-06-26T20:01:43.901Z,7.20
2019-06-26T20:04:16.174Z,7.20
2019-06-26T20:06:48.601Z,7.80
2019-06-26T20:09:21.079Z,5.40
2019-06-26T20:11:53.600Z,4.03
2019-06-26T20:14:25.999Z,6.67
2019-06-26T20:16:58.613Z,4.00
2019-06-26T20:19:32.188Z,5.00
2019-06-26T20:22:04.688Z,4.87
2019-06-26T20:24:44.141Z,4.57
2019-06-26T20:27:17.272Z,3.70
2019-06-26T20:29:49.602Z,5.93
2019-06-26T20:32:21.928Z,4.47
2019-06-26T20:34:54.507Z,4.23
2019-06-26T20:37:26.886Z,3.87
2019-06-26T20:39:59.232Z,6.00
2019-06-26T20:42:31.597Z,6.17
2019-06-26T20:45:05.628Z,29.00
2019-06-26T20:47:38.113Z,7.30
2019-06-26T20:50:10.541Z,5.53
2019-06-26T20:52:42.936Z,2.73
2019-06-26T20:55:15.266Z,4.00
2019-06-26T20:57:47.557Z,4.33
2019-06-26T21:00:22.445Z,4.30
2019-06-26T21:02:55.380Z,5.17
2019-06-26T21:05:29.072Z,4.03
2019-06-26T21:08:01.562Z,3.00
2019-06-26T21:10:38.095Z,3.50
2019-06-26T21:13:12.040Z,3.07
2019-06-26T21:15:44.489Z,6.23
2019-06-26T21:18:16.859Z,3.63
2019-06-26T21:20:49.264Z,3.40
2019-06-26T21:23:23.519Z,3.00
2019-06-26T21:25:56.139Z,3.20
2019-06-26T21:28:29.987Z,4.63
2019-06-26T21:31:02.244Z,5.93
2019-06-26T21:33:34.588Z,3.70
2019-06-26T21:36:06.872Z,4.68
2019-06-26T21:38:39.094Z,5.03
2019-06-26T21:41:11.362Z,4.50
2019-06-26T21:43:43.589Z,4.20
2019-06-26T21:46:15.934Z,3.97
2019-06-26T21:48:48.203Z,3.85
2019-06-26T21:51:21.245Z,6.50
2019-06-26T21:53:53.577Z,5.63
2019-06-26T21:56:25.830Z,5.70
2019-06-26T21:58:58.076Z,3.57
2019-06-26T22:01:30.527Z,3.83
2019-06-26T22:04:03.645Z,3.37
2019-06-26T22:06:36.022Z,4.47
2019-06-26T22:09:08.602Z,5.10
2019-06-26T22:11:40.924Z,4.53
2019-06-26T22:14:13.273Z,5.57
2019-06-26T22:16:45.532Z,6.27
2019-06-26T22:19:17.779Z,4.63
2019-06-26T22:21:50.004Z,5.47
2019-06-26T22:24:22.415Z,4.73
2019-06-26T22:26:54.695Z,4.83
2019-06-26T22:29:27.950Z,7.10
2019-06-26T22:32:00.309Z,9.43
2019-06-26T22:34:32.533Z,4.50
2019-06-26T22:37:04.851Z,3.97
2019-06-26T22:39:37.114Z,6.07
2019-06-26T22:42:09.412Z,7.20
2019-06-26T22:44:41.719Z,6.07
2019-06-26T22:47:13.953Z,6.10
2019-06-26T22:49:46.168Z,5.93
2019-06-26T22:52:18.736Z,7.27
2019-06-26T22:54:51.027Z,4.93
2019-06-26T22:57:23.508Z,4.70
2019-06-26T22:59:55.805Z,4.35
2019-06-26T23:02:28.236Z,4.40
2019-06-26T23:05:00.792Z,7.37
2019-06-26T23:07:33.244Z,5.00
2019-06-26T23:10:06.551Z,6.73
2019-06-26T23:12:38.804Z,5.23
2019-06-26T23:15:13.349Z,4.67
2019-06-26T23:17:45.600Z,7.10
2019-06-26T23:20:18.127Z,6.93
2019-06-26T23:22:50.483Z,5.60
2019-06-26T23:25:22.917Z,7.53
2019-06-26T23:27:55.208Z,7.07
2019-06-26T23:30:29.444Z,6.73
2019-06-26T23:33:01.726Z,6.97
2019-06-26T23:35:33.983Z,7.13
2019-06-26T23:38:06.253Z,6.50
2019-06-26T23:40:38.418Z,5.83
2019-06-26T23:43:10.740Z,4.93
2019-06-26T23:45:43.660Z,6.90
2019-06-26T23:48:15.875Z,4.53
2019-06-26T23:50:48.247Z,6.62
2019-06-26T23:53:20.599Z,7.70
2019-06-26T23:55:56.222Z,5.67
2019-06-26T23:58:28.562Z,7.30
